Time;durP1;ratioP1;P1;durP2;ratioP2;P2;SDS_P1;SDS_P2;PMS_P1;PMS_P2;Temp;Humidity;BMP_temperature;BMP_pressure;BME280_temperature;BME280_humidity;BME280_pressure;Samples;Min_cycle;Max_cycle;Signal;HPM_P1;HPM_P2
2024/02/25 00:00:03;;;;;;;43.00;30.40;;;;;;;3.96;91.90;99775.77;102962;1257;108059;-70
2024/02/25 00:02:39;;;;;;;41.10;29.80;;;;;;;3.95;91.84;99781.80;104204;1258;138342;-70
2024/02/25 00:05:07;;;;;;;36.10;27.10;;;;;;;3.93;91.95;99775.43;102137;1258;1002706;-69
2024/02/25 00:07:35;;;;;;;40.60;28.70;;;;;;;3.93;91.96;99768.73;102847;1263;139216;-70
2024/02/25 00:10:02;;;;;;;38.80;28.20;;;;;;;3.92;92.13;99777.17;103004;1259;97781;-70
2024/02/25 00:12:30;;;;;;;40.70;27.80;;;;;;;3.90;92.17;99784.95;102999;1259;108955;-71
2024/02/25 00:14:58;;;;;;;40.80;28.10;;;;;;;3.89;92.08;99795.79;103317;1257;138820;-71
2024/02/25 00:17:25;;;;;;;41.90;28.00;;;;;;;3.87;92.12;99797.71;103405;1259;110657;-71
2024/02/25 00:19:53;;;;;;;41.30;28.90;;;;;;;3.86;92.20;99796.36;102825;1262;138777;-70
2024/02/25 00:22:20;;;;;;;45.50;28.80;;;;;;;3.83;92.31;99793.98;103415;1259;97866;-70
2024/02/25 00:24:48;;;;;;;39.30;27.40;;;;;;;3.81;92.48;99797.10;102968;1259;107274;-70
2024/02/25 00:27:15;;;;;;;40.40;28.00;;;;;;;3.79;92.36;99802.30;103375;1259;138861;-70
2024/02/25 00:29:43;;;;;;;40.10;28.10;;;;;;;3.77;92.88;99799.55;103422;1258;113118;-70
2024/02/25 00:32:11;;;;;;;38.20;27.70;;;;;;;3.75;92.63;99794.41;102965;1263;138409;-71
2024/02/25 00:34:40;;;;;;;37.80;26.70;;;;;;;3.72;93.15;99796.52;102810;1259;98351;-72
2024/02/25 00:37:07;;;;;;;36.00;26.50;;;;;;;3.71;92.91;99793.43;103302;1259;138617;-68
2024/02/25 00:39:35;;;;;;;38.70;25.70;;;;;;;3.70;93.30;99794.48;102889;1259;97834;-70
2024/02/25 00:42:02;;;;;;;37.10;26.10;;;;;;;3.69;93.37;99796.73;103290;1259;111690;-70
2024/02/25 00:44:34;;;;;;;37.30;26.30;;;;;;;3.68;93.71;99797.95;103181;1259;138512;-70
2024/02/25 00:47:01;;;;;;;37.90;27.80;;;;;;;3.67;93.84;99798.30;103040;1259;98377;-71
2024/02/25 00:49:29;;;;;;;39.40;28.30;;;;;;;3.66;93.69;99797.11;102727;1258;138526;-71
2024/02/25 00:51:57;;;;;;;35.00;27.20;;;;;;;3.64;93.86;99795.75;103006;1259;97910;-70
2024/02/25 00:54:24;;;;;;;41.20;27.40;;;;;;;3.64;94.07;99791.28;102934;1259;111970;-69
2024/02/25 00:56:51;;;;;;;35.60;26.20;;;;;;;3.63;94.06;99790.78;102864;1259;138492;-70
2024/02/25 00:59:19;;;;;;;38.30;28.80;;;;;;;3.63;94.10;99795.25;102983;1258;98392;-70
2024/02/25 01:01:47;;;;;;;41.70;28.40;;;;;;;3.61;94.23;99793.72;102792;1259;138404;-70
2024/02/25 01:04:15;;;;;;;39.50;27.20;;;;;;;3.62;94.27;99797.66;102963;1257;97812;-70
2024/02/25 01:06:43;;;;;;;35.80;27.30;;;;;;;3.61;94.31;99795.44;103034;1259;111229;-71
2024/02/25 01:09:10;;;;;;;38.30;26.80;;;;;;;3.60;94.46;99794.42;102791;1259;139026;-71
2024/02/25 01:11:39;;;;;;;35.50;26.00;;;;;;;3.59;94.45;99790.30;102893;1259;98585;-71
2024/02/25 01:14:06;;;;;;;37.40;27.30;;;;;;;3.59;94.51;99788.60;103122;1257;138431;-70
2024/02/25 01:16:34;;;;;;;39.00;26.80;;;;;;;3.59;94.79;99785.83;102906;1259;97812;-70
2024/02/25 01:19:01;;;;;;;35.50;26.10;;;;;;;3.58;94.60;99787.73;102907;1259;111386;-70
2024/02/25 01:21:29;;;;;;;34.90;25.50;;;;;;;3.59;94.80;99782.23;102958;1259;107795;-70
2024/02/25 01:23:56;;;;;;;34.30;26.20;;;;;;;3.59;95.15;99784.30;103412;1259;98432;-70
2024/02/25 01:26:23;;;;;;;38.50;26.90;;;;;;;3.59;95.30;99783.95;103017;1259;139268;-70
2024/02/25 01:28:51;;;;;;;34.70;25.40;;;;;;;3.60;95.08;99777.58;103005;1259;98084;-69
2024/02/25 01:31:18;;;;;;;31.80;24.20;;;;;;;3.60;94.93;99770.69;102292;1259;1003003;-69
2024/02/25 01:33:46;;;;;;;33.20;25.00;;;;;;;3.62;95.03;99767.92;102927;1260;107349;-69
2024/02/25 01:36:13;;;;;;;34.40;24.30;;;;;;;3.65;95.36;99769.95;103127;1262;97805;-70
2024/02/25 01:38:41;;;;;;;31.70;24.30;;;;;;;3.68;95.34;99767.33;102839;1258;138348;-70
2024/02/25 01:41:08;;;;;;;29.60;23.90;;;;;;;3.71;95.19;99767.30;103009;1259;96297;-71
2024/02/25 01:43:39;;;;;;;34.70;23.60;;;;;;;3.74;95.15;99767.26;103874;1259;138449;-70
2024/02/25 01:46:07;;;;;;;32.50;24.00;;;;;;;3.77;95.30;99778.58;102992;1259;107103;-70
2024/02/25 01:48:35;;;;;;;31.20;23.50;;;;;;;3.81;95.13;99780.94;102962;1259;98312;-71
2024/02/25 01:51:03;;;;;;;32.40;24.50;;;;;;;3.83;95.08;99785.55;102772;1259;138564;-69
2024/02/25 01:53:31;;;;;;;30.50;24.20;;;;;;;3.86;94.82;99785.52;102924;1258;98486;-71
2024/02/25 01:55:59;;;;;;;32.10;24.70;;;;;;;3.88;94.76;99781.52;104077;1258;138137;-69
2024/02/25 01:58:27;;;;;;;32.70;25.00;;;;;;;3.89;94.80;99779.29;102901;1259;107517;-70
2024/02/25 02:00:54;;;;;;;32.60;24.20;;;;;;;3.91;94.65;99778.05;102873;1259;98328;-70
2024/02/25 02:03:22;;;;;;;28.90;21.70;;;;;;;3.94;94.57;99779.39;103057;1263;138101;-71
2024/02/25 02:05:49;;;;;;;30.40;22.90;;;;;;;3.97;94.80;99777.66;103313;1263;97796;-68
2024/02/25 02:08:17;;;;;;;30.10;22.30;;;;;;;4.00;94.71;99775.72;103645;1258;138476;-69
2024/02/25 02:10:45;;;;;;;30.90;23.50;;;;;;;4.03;94.61;99767.92;102936;1258;107729;-71
2024/02/25 02:13:12;;;;;;;31.80;22.70;;;;;;;4.06;94.43;99763.58;103341;1260;138571;-70
2024/02/25 02:15:40;;;;;;;30.50;22.70;;;;;;;4.07;94.43;99757.37;103180;1262;111490;-70
2024/02/25 02:18:08;;;;;;;31.80;23.40;;;;;;;4.11;94.44;99760.06;102958;1259;97917;-69
2024/02/25 02:20:37;;;;;;;29.90;23.40;;;;;;;4.12;94.13;99756.43;103122;1263;138584;-69
2024/02/25 02:23:05;;;;;;;32.20;22.40;;;;;;;4.14;94.26;99755.40;104099;1259;108131;-70
2024/02/25 02:25:32;;;;;;;29.90;22.90;;;;;;;4.15;94.03;99750.73;102923;1259;138560;-69
2024/02/25 02:28:00;;;;;;;28.50;22.90;;;;;;;4.16;94.04;99737.83;103379;1260;107285;-71
2024/02/25 02:30:27;;;;;;;31.80;23.00;;;;;;;4.15;94.07;99730.60;103082;1262;97812;-70
2024/02/25 02:32:55;;;;;;;29.30;22.30;;;;;;;4.17;93.80;99735.73;102919;1262;139650;-71
2024/02/25 02:35:22;;;;;;;30.90;21.80;;;;;;;4.18;93.69;99735.90;102935;1259;107055;-71
2024/02/25 02:37:50;;;;;;;29.80;22.60;;;;;;;4.19;93.77;99736.75;102800;1259;138593;-72
2024/02/25 02:40:19;;;;;;;28.60;20.90;;;;;;;4.20;93.95;99735.68;102862;1262;108121;-70
2024/02/25 02:42:47;;;;;;;27.40;21.20;;;;;;;4.21;93.72;99736.19;103044;1259;97800;-71
2024/02/25 02:45:15;;;;;;;26.80;21.20;;;;;;;4.22;93.75;99732.04;102791;1263;139127;-72
2024/02/25 02:47:42;;;;;;;27.90;21.70;;;;;;;4.22;93.80;99722.05;103764;1258;106658;-70
2024/02/25 02:50:11;;;;;;;29.20;21.50;;;;;;;4.22;93.70;99720.67;102832;1259;138411;-71
2024/02/25 02:52:39;;;;;;;28.30;21.70;;;;;;;4.22;93.87;99715.68;103444;1259;106963;-72
2024/02/25 02:55:08;;;;;;;25.00;20.20;;;;;;;4.23;93.59;99721.17;102771;1259;98051;-72
2024/02/25 02:57:35;;;;;;;29.60;20.80;;;;;;;4.26;93.76;99723.73;102951;1259;111312;-71
2024/02/25 03:00:02;;;;;;;27.30;20.60;;;;;;;4.28;93.72;99730.75;102859;1263;107135;-70
2024/02/25 03:02:30;;;;;;;26.50;21.60;;;;;;;4.29;93.62;99729.35;102859;1255;97959;-68
2024/02/25 03:04:57;;;;;;;27.20;21.60;;;;;;;4.30;93.79;99726.23;102795;1259;109039;-72
2024/02/25 03:07:25;;;;;;;28.00;21.80;;;;;;;4.28;93.49;99724.54;103865;1260;139072;-70
2024/02/25 03:09:52;;;;;;;29.10;22.70;;;;;;;4.30;93.78;99727.45;102975;1263;112850;-70
2024/02/25 03:12:20;;;;;;;29.50;22.80;;;;;;;4.28;93.53;99732.63;102841;1263;108437;-70
2024/02/25 03:14:47;;;;;;;29.20;22.50;;;;;;;4.26;93.50;99728.02;102777;1263;139073;-69
2024/02/25 03:17:15;;;;;;;29.90;23.70;;;;;;;4.24;93.50;99728.21;103024;1260;107164;-69
2024/02/25 03:19:42;;;;;;;30.20;23.60;;;;;;;4.24;93.55;99732.36;103624;1260;138663;-70
2024/02/25 03:22:10;;;;;;;31.10;23.70;;;;;;;4.19;93.60;99732.77;102830;1263;112055;-70
2024/02/25 03:24:38;;;;;;;33.30;24.70;;;;;;;4.21;93.40;99736.53;103175;1263;108486;-70
2024/02/25 03:27:06;;;;;;;31.70;23.10;;;;;;;4.19;93.62;99738.29;102744;1261;139239;-70
2024/02/25 03:29:34;;;;;;;29.70;23.40;;;;;;;4.17;93.63;99739.52;102905;1263;107042;-69
2024/02/25 03:32:01;;;;;;;30.60;23.70;;;;;;;4.17;93.56;99747.27;102766;1263;139547;-71
2024/02/25 03:34:28;;;;;;;33.50;23.50;;;;;;;4.15;93.61;99745.91;102136;1261;1003019;-69
2024/02/25 03:36:55;;;;;;;33.30;24.50;;;;;;;4.16;93.70;99747.11;102776;1260;107707;-70
2024/02/25 03:39:23;;;;;;;31.70;24.20;;;;;;;4.16;93.64;99746.25;102775;1260;138551;-70
2024/02/25 03:41:50;;;;;;;31.10;23.60;;;;;;;4.13;93.74;99745.43;103885;1260;107008;-71
2024/02/25 03:44:17;;;;;;;33.10;24.90;;;;;;;4.14;93.53;99752.83;102792;1260;138374;-70
2024/02/25 03:46:45;;;;;;;33.90;25.00;;;;;;;4.13;93.67;99752.48;102886;1259;111223;-70
2024/02/25 03:49:13;;;;;;;33.70;25.30;;;;;;;4.12;93.67;99755.58;102949;1259;106486;-69
2024/02/25 03:51:42;;;;;;;30.40;23.80;;;;;;;4.12;93.63;99757.13;103871;1259;97838;-70
2024/02/25 03:54:10;;;;;;;30.90;24.10;;;;;;;4.11;93.54;99755.92;102800;1259;106484;-69
2024/02/25 03:56:37;;;;;;;32.80;24.90;;;;;;;4.10;93.80;99758.18;103232;1263;138432;-69
2024/02/25 03:59:05;;;;;;;29.90;23.20;;;;;;;4.10;93.87;99758.87;104224;1260;110435;-70
2024/02/25 04:01:32;;;;;;;29.40;22.40;;;;;;;4.11;93.86;99756.27;102703;1264;138951;-68
2024/02/25 04:04:00;;;;;;;28.40;22.40;;;;;;;4.14;93.79;99759.35;102897;1260;97823;-70
2024/02/25 04:06:27;;;;;;;31.00;23.60;;;;;;;4.18;93.91;99758.60;103530;1259;107430;-70
2024/02/25 04:08:55;;;;;;;31.30;22.20;;;;;;;4.22;93.82;99754.76;103035;1259;138487;-71
2024/02/25 04:11:22;;;;;;;27.60;21.60;;;;;;;4.27;93.71;99753.48;103041;1262;111847;-72
2024/02/25 04:13:50;;;;;;;32.10;23.70;;;;;;;4.32;93.76;99752.39;103311;1259;139118;-70
2024/02/25 04:16:17;;;;;;;29.80;22.60;;;;;;;4.36;93.52;99747.52;102222;1260;1003748;-70
2024/02/25 04:18:44;;;;;;;26.30;20.70;;;;;;;4.39;93.47;99745.23;102998;1263;107402;-71
2024/02/25 04:21:12;;;;;;;26.30;19.50;;;;;;;4.40;93.27;99739.88;103076;1259;139508;-70
2024/02/25 04:23:41;;;;;;;26.80;20.80;;;;;;;4.42;93.17;99743.11;102859;1263;111632;-70
2024/02/25 04:26:09;;;;;;;26.50;19.90;;;;;;;4.41;93.02;99742.26;103777;1259;141125;-69
2024/02/25 04:28:36;;;;;;;26.40;21.60;;;;;;;4.42;93.13;99742.59;102913;1259;98332;-69
2024/02/25 04:31:03;;;;;;;31.90;22.90;;;;;;;4.43;92.98;99730.69;102881;1259;108632;-70
2024/02/25 04:33:31;;;;;;;31.50;23.60;;;;;;;4.42;93.01;99730.02;103119;1259;138923;-70
2024/02/25 04:35:59;;;;;;;32.10;23.70;;;;;;;4.41;92.84;99732.11;103730;1258;110844;-70
2024/02/25 04:38:26;;;;;;;34.90;26.90;;;;;;;4.40;92.83;99734.19;104190;1258;139543;-70
2024/02/25 04:40:55;;;;;;;36.60;28.10;;;;;;;4.39;92.64;99739.37;104013;1259;95768;-70
2024/02/25 04:43:22;;;;;;;42.10;27.00;;;;;;;4.38;92.54;99736.64;102724;1260;140095;-70
2024/02/25 04:45:50;;;;;;;34.80;27.10;;;;;;;4.35;92.46;99738.05;103224;1259;97846;-71
2024/02/25 04:48:17;;;;;;;40.00;26.90;;;;;;;4.33;92.39;99735.68;102957;1259;110756;-72
2024/02/25 04:50:45;;;;;;;35.80;26.90;;;;;;;4.32;92.38;99729.15;102959;1259;138535;-69
2024/02/25 04:53:12;;;;;;;37.30;26.60;;;;;;;4.29;92.61;99727.11;103230;1259;97935;-70
2024/02/25 04:55:40;;;;;;;34.10;25.80;;;;;;;4.27;92.40;99724.58;103306;1258;138530;-70
2024/02/25 04:58:08;;;;;;;36.90;25.80;;;;;;;4.24;92.57;99717.55;102898;1263;97862;-70
2024/02/25 05:00:35;;;;;;;34.00;26.00;;;;;;;4.22;92.26;99715.17;104322;1258;111598;-71
2024/02/25 05:03:04;;;;;;;32.70;25.70;;;;;;;4.20;92.25;99721.23;102852;1262;138690;-70
2024/02/25 05:05:32;;;;;;;36.60;27.20;;;;;;;4.16;92.05;99722.84;102999;1260;97794;-70
2024/02/25 05:07:59;;;;;;;35.30;26.80;;;;;;;4.13;92.14;99729.95;102938;1263;138229;-71
2024/02/25 05:10:26;;;;;;;35.20;25.60;;;;;;;4.11;92.14;99729.79;102938;1259;97806;-70
2024/02/25 05:12:54;;;;;;;34.70;25.70;;;;;;;4.08;92.56;99733.62;103031;1259;111701;-70
2024/02/25 05:15:21;;;;;;;33.10;25.30;;;;;;;4.06;92.58;99730.55;102872;1259;138409;-70
2024/02/25 05:17:49;;;;;;;32.40;25.40;;;;;;;4.04;92.70;99729.55;102981;1260;97858;-69
2024/02/25 05:20:17;;;;;;;34.10;25.60;;;;;;;4.02;92.72;99725.63;103024;1259;138256;-68
2024/02/25 05:22:44;;;;;;;35.10;24.80;;;;;;;4.01;92.82;99725.64;102926;1262;97712;-69
2024/02/25 05:25:14;;;;;;;31.20;24.20;;;;;;;3.99;93.01;99726.54;103304;1259;111038;-69
2024/02/25 05:27:42;;;;;;;33.50;25.80;;;;;;;3.98;93.02;99725.34;103484;1259;107640;-70
2024/02/25 05:30:11;;;;;;;32.50;25.80;;;;;;;3.97;93.29;99731.03;103682;1261;95831;-69
2024/02/25 05:32:38;;;;;;;32.20;24.80;;;;;;;3.96;93.17;99722.09;103167;1258;139593;-69
2024/02/25 05:35:07;;;;;;;29.60;23.80;;;;;;;3.94;93.50;99713.86;103063;1259;98504;-70
2024/02/25 05:37:34;;;;;;;29.10;23.40;;;;;;;3.98;93.68;99716.23;102891;1259;138465;-69
2024/02/25 05:40:02;;;;;;;34.10;24.90;;;;;;;3.99;93.73;99718.61;102933;1259;107815;-70
2024/02/25 05:42:29;;;;;;;35.80;26.30;;;;;;;4.00;93.79;99714.13;103053;1259;98333;-69
2024/02/25 05:44:57;;;;;;;30.90;23.70;;;;;;;4.02;93.66;99715.48;102820;1260;138243;-70
2024/02/25 05:47:25;;;;;;;31.10;24.20;;;;;;;4.05;93.56;99716.80;104197;1259;96015;-69
2024/02/25 05:49:52;;;;;;;35.10;26.90;;;;;;;4.08;93.52;99716.94;103122;1262;138356;-70
2024/02/25 05:52:19;;;;;;;31.40;24.20;;;;;;;4.06;93.36;99714.72;102803;1263;125425;-69
2024/02/25 05:54:46;;;;;;;29.30;23.50;;;;;;;4.10;93.50;99726.36;102979;1259;98327;-69
2024/02/25 05:57:14;;;;;;;30.80;24.20;;;;;;;4.09;93.35;99720.87;102060;1259;1002866;-70
2024/02/25 05:59:41;;;;;;;33.40;25.20;;;;;;;4.08;93.31;99722.27;102969;1263;97980;-69
2024/02/25 06:02:09;;;;;;;30.60;24.90;;;;;;;4.06;93.25;99725.04;102801;1259;138600;-69
2024/02/25 06:04:41;;;;;;;27.20;22.30;;;;;;;4.05;93.34;99727.65;103152;1263;1002890;-70
2024/02/25 06:07:08;;;;;;;30.60;24.40;;;;;;;4.04;93.25;99730.58;102849;1259;97832;-71
2024/02/25 06:09:36;;;;;;;31.10;24.40;;;;;;;4.06;93.36;99731.41;102849;1263;108509;-70
2024/02/25 06:12:06;;;;;;;31.10;23.40;;;;;;;4.10;93.61;99734.79;102836;1261;97826;-71
2024/02/25 06:14:33;;;;;;;29.00;22.30;;;;;;;4.17;93.44;99733.15;103551;1259;139772;-69
2024/02/25 06:17:01;;;;;;;28.30;22.20;;;;;;;4.29;93.53;99731.94;102979;1259;107440;-69
2024/02/25 06:19:29;;;;;;;31.00;22.40;;;;;;;4.38;93.51;99725.60;102876;1263;139863;-69
2024/02/25 06:21:56;;;;;;;29.30;22.80;;;;;;;4.49;93.39;99725.26;102929;1259;107991;-70
2024/02/25 06:24:24;;;;;;;27.90;21.70;;;;;;;4.65;93.40;99724.33;102927;1259;97855;-69
2024/02/25 06:26:51;;;;;;;29.00;21.60;;;;;;;5.02;93.36;99722.30;102842;1263;139946;-70
2024/02/25 06:29:18;;;;;;;28.30;22.00;;;;;;;5.67;92.84;99715.35;103490;1258;107406;-70
2024/02/25 06:31:46;;;;;;;25.20;20.30;;;;;;;6.36;92.28;99717.83;102798;1259;140008;-71
2024/02/25 06:34:13;;;;;;;26.40;19.80;;;;;;;7.01;91.49;99714.30;102971;1263;108484;-70
2024/02/25 06:36:41;;;;;;;23.80;18.00;;;;;;;7.61;90.46;99721.83;103288;1259;97806;-71
2024/02/25 06:39:09;;;;;;;27.90;17.90;;;;;;;8.07;88.78;99722.06;103540;1258;139444;-69
2024/02/25 06:41:37;;;;;;;20.30;17.40;;;;;;;8.30;87.75;99723.25;102992;1259;108471;-69
2024/02/25 06:44:04;;;;;;;20.20;15.10;;;;;;;8.46;85.95;99723.64;102751;1263;138560;-69
2024/02/25 06:46:32;;;;;;;17.60;14.90;;;;;;;8.64;84.45;99714.41;103385;1261;110033;-69
2024/02/25 06:48:59;;;;;;;19.20;14.90;;;;;;;8.91;83.26;99710.17;104252;1259;97005;-73
2024/02/25 06:51:28;;;;;;;16.60;14.00;;;;;;;9.36;83.33;99708.27;102901;1259;138301;-68
2024/02/25 06:53:55;;;;;;;14.90;12.80;;;;;;;10.06;82.51;99715.20;103066;1259;106219;-68
2024/02/25 06:56:23;;;;;;;16.50;13.00;;;;;;;10.70;80.36;99728.67;102738;1259;139310;-71
2024/02/25 06:58:51;;;;;;;14.70;12.50;;;;;;;11.35;78.84;99729.05;103394;1259;108155;-70
2024/02/25 07:01:19;;;;;;;13.50;11.60;;;;;;;12.06;76.56;99733.57;102846;1259;138542;-71
2024/02/25 07:03:49;;;;;;;16.30;12.30;;;;;;;12.74;74.69;99730.66;102951;1259;111387;-70
2024/02/25 07:06:17;;;;;;;12.50;11.20;;;;;;;13.46;72.60;99725.26;102953;1263;107244;-69
2024/02/25 07:08:44;;;;;;;13.40;11.10;;;;;;;14.23;70.85;99720.61;102828;1263;138529;-73
2024/02/25 07:11:19;;;;;;;14.60;11.40;;;;;;;15.02;69.27;99716.06;102878;1259;108788;-72
2024/02/25 07:13:48;;;;;;;12.00;10.50;;;;;;;15.79;65.99;99711.77;103075;1258;138708;-71
2024/02/25 07:16:16;;;;;;;12.70;11.00;;;;;;;16.44;63.55;99710.27;104286;1258;111018;-71
2024/02/25 07:18:43;;;;;;;12.50;11.20;;;;;;;17.10;63.20;99703.30;104272;1258;108008;-71
2024/02/25 07:21:11;;;;;;;11.90;10.20;;;;;;;17.85;61.94;99694.42;104185;1258;139325;-72
2024/02/25 07:23:41;;;;;;;13.50;11.30;;;;;;;18.70;60.79;99690.13;104317;1258;106804;-73
2024/02/25 07:26:09;;;;;;;12.10;10.60;;;;;;;19.48;59.51;99682.23;104153;1258;138967;-70
2024/02/25 07:28:36;;;;;;;11.80;9.90;;;;;;;20.08;57.25;99675.95;104270;1259;110186;-70
2024/02/25 07:31:03;;;;;;;12.40;11.10;;;;;;;20.48;55.80;99672.70;104264;1258;107930;-70
2024/02/25 07:33:30;;;;;;;15.40;10.90;;;;;;;20.62;54.25;99661.66;104253;1258;138535;-70
2024/02/25 07:35:58;;;;;;;12.10;10.10;;;;;;;20.83;53.88;99652.27;104277;1258;107404;-72
2024/02/25 07:38:25;;;;;;;11.10;9.90;;;;;;;20.94;52.34;99647.17;104205;1259;138135;-72
2024/02/25 07:40:53;;;;;;;12.20;10.00;;;;;;;20.93;51.11;99648.05;104271;1258;111504;-72
2024/02/25 07:43:21;;;;;;;12.40;10.50;;;;;;;21.04;51.68;99643.98;103952;1259;138378;-75
2024/02/25 07:45:48;;;;;;;11.30;10.10;;;;;;;21.23;50.86;99640.96;102929;1263;97680;-72
2024/02/25 07:48:15;;;;;;;11.60;10.10;;;;;;;21.40;49.78;99643.22;102974;1263;108785;-72
2024/02/25 07:50:43;;;;;;;10.80;9.70;;;;;;;21.54;48.81;99646.92;102877;1263;138268;-73
2024/02/25 07:53:10;;;;;;;12.00;10.10;;;;;;;21.41;46.84;99650.02;103072;1259;111557;-73
2024/02/25 07:55:38;;;;;;;10.70;9.60;;;;;;;21.10;45.82;99654.05;102829;1263;139508;-73
2024/02/25 07:58:06;;;;;;;11.20;9.70;;;;;;;20.67;46.34;99653.14;102921;1259;97788;-74
2024/02/25 08:00:33;;;;;;;11.10;10.00;;;;;;;20.37;46.02;99655.60;103098;1258;107076;-74
2024/02/25 08:03:01;;;;;;;12.80;10.80;;;;;;;20.00;45.87;99651.91;102889;1262;138204;-74
2024/02/25 08:05:29;;;;;;;12.70;10.90;;;;;;;19.68;45.66;99651.42;102970;1262;111521;-73
2024/02/25 08:07:56;;;;;;;12.70;11.30;;;;;;;19.53;45.61;99641.15;102808;1259;138332;-74
2024/02/25 08:10:24;;;;;;;14.10;10.90;;;;;;;19.68;46.81;99638.17;102842;1264;97703;-74
2024/02/25 08:12:54;;;;;;;12.00;10.70;;;;;;;20.08;46.68;99638.40;104318;1258;107033;-74
2024/02/25 08:15:21;;;;;;;12.10;10.90;;;;;;;20.39;46.05;99635.99;104174;1259;138512;-73
2024/02/25 08:17:48;;;;;;;14.80;11.20;;;;;;;20.70;46.33;99628.31;104303;1258;111278;-74
2024/02/25 08:20:16;;;;;;;14.40;10.90;;;;;;;21.01;45.24;99629.52;104174;1259;138474;-74
2024/02/25 08:22:43;;;;;;;11.80;10.30;;;;;;;21.24;45.32;99628.30;103035;1259;97795;-74
2024/02/25 08:25:11;;;;;;;13.40;11.70;;;;;;;21.65;45.02;99628.98;103158;1259;108916;-73
2024/02/25 08:27:39;;;;;;;12.30;11.00;;;;;;;22.01;44.54;99629.65;103577;1258;97829;-74
2024/02/25 08:30:08;;;;;;;13.70;11.90;;;;;;;22.33;44.49;99628.08;102987;1259;112694;-73
2024/02/25 08:32:36;;;;;;;13.30;11.50;;;;;;;22.72;43.98;99618.08;104045;1258;138105;-73
2024/02/25 08:35:04;;;;;;;12.30;11.00;;;;;;;23.05;43.18;99613.76;102992;1262;97851;-74
2024/02/25 08:37:31;;;;;;;14.90;11.80;;;;;;;23.31;42.47;99609.20;104155;1259;139607;-74
2024/02/25 08:39:58;;;;;;;12.50;11.20;;;;;;;23.55;42.15;99606.50;102946;1263;98292;-74
2024/02/25 08:42:26;;;;;;;13.40;11.50;;;;;;;23.27;41.62;99604.73;102956;1259;111957;-75
2024/02/25 08:44:53;;;;;;;11.90;10.70;;;;;;;22.98;41.69;99600.82;102869;1259;138370;-74
2024/02/25 08:47:21;;;;;;;11.70;10.50;;;;;;;23.02;40.97;99595.27;103456;1258;97818;-75
2024/02/25 08:49:49;;;;;;;12.40;11.10;;;;;;;23.08;41.15;99585.84;102835;1262;138117;-72
2024/02/25 08:52:16;;;;;;;12.80;11.50;;;;;;;23.14;41.13;99579.09;102933;1259;97676;-75
2024/02/25 08:54:45;;;;;;;13.00;11.10;;;;;;;23.17;40.22;99577.50;102957;1259;111992;-74
2024/02/25 08:57:13;;;;;;;13.10;11.70;;;;;;;23.05;40.50;99572.14;102854;1259;138450;-75
2024/02/25 08:59:40;;;;;;;13.80;11.60;;;;;;;23.24;41.16;99570.80;102954;1264;97846;-74
2024/02/25 09:02:08;;;;;;;13.20;11.70;;;;;;;23.40;40.65;99568.34;102811;1259;138095;-74
2024/02/25 09:04:36;;;;;;;12.80;11.50;;;;;;;23.42;39.30;99568.05;102954;1259;97780;-74
2024/02/25 09:07:05;;;;;;;12.90;11.60;;;;;;;23.07;38.68;99563.20;102921;1259;109847;-74
2024/02/25 09:09:32;;;;;;;13.10;11.80;;;;;;;22.84;39.35;99560.29;102880;1259;141893;-75
2024/02/25 09:12:00;;;;;;;15.30;12.10;;;;;;;22.58;39.44;99564.27;102930;1259;97849;-74
2024/02/25 09:14:28;;;;;;;14.10;12.30;;;;;;;22.31;38.79;99565.71;102701;1264;138364;-74
2024/02/25 09:16:55;;;;;;;14.20;12.70;;;;;;;22.13;39.69;99559.57;102918;1262;97881;-76
2024/02/25 09:19:24;;;;;;;13.70;12.30;;;;;;;22.08;40.37;99561.10;103214;1258;138326;-73
2024/02/25 09:21:52;;;;;;;13.60;12.30;;;;;;;22.15;40.43;99558.34;103367;1259;107647;-72
2024/02/25 09:24:20;;;;;;;13.90;12.20;;;;;;;22.13;39.56;99556.38;102947;1261;97716;-74
2024/02/25 09:26:48;;;;;;;13.20;11.80;;;;;;;22.22;41.34;99554.32;102828;1262;138005;-75
2024/02/25 09:29:17;;;;;;;13.90;12.50;;;;;;;22.60;41.30;99557.70;103141;1258;97943;-75
2024/02/25 09:31:45;;;;;;;16.20;12.90;;;;;;;22.79;40.73;99552.23;102909;1259;138400;-74
2024/02/25 09:34:12;;;;;;;16.10;12.60;;;;;;;22.98;40.98;99551.44;102917;1259;107690;-75
2024/02/25 09:36:41;;;;;;;15.20;12.80;;;;;;;23.16;39.84;99551.55;102990;1262;97698;-74
2024/02/25 09:39:09;;;;;;;14.10;12.70;;;;;;;22.99;39.93;99545.01;102882;1258;138217;-74
2024/02/25 09:41:39;;;;;;;14.80;12.60;;;;;;;22.98;40.42;99543.72;103054;1259;97791;-74
2024/02/25 09:44:11;;;;;;;15.30;12.90;;;;;;;23.14;40.45;99541.44;103285;1258;137938;-74
2024/02/25 09:46:39;;;;;;;15.00;13.20;;;;;;;23.10;39.44;99537.20;102968;1258;106871;-74
2024/02/25 09:49:09;;;;;;;14.20;12.40;;;;;;;23.11;40.30;99538.20;103297;1259;97801;-74
2024/02/25 09:51:38;;;;;;;13.80;12.40;;;;;;;23.25;40.40;99531.01;102978;1259;109153;-74
2024/02/25 09:54:08;;;;;;;15.00;13.40;;;;;;;23.35;40.55;99531.98;103035;1263;97789;-74
2024/02/25 09:56:35;;;;;;;15.20;13.00;;;;;;;23.38;39.95;99536.83;102852;1262;138627;-74
2024/02/25 09:59:04;;;;;;;14.40;12.40;;;;;;;23.38;39.94;99532.44;102929;1259;107727;-73
2024/02/25 10:01:32;;;;;;;18.40;13.00;;;;;;;23.43;39.53;99529.42;102879;1259;138846;-72
2024/02/25 10:03:59;;;;;;;14.80;13.20;;;;;;;23.32;39.05;99527.27;102909;1259;108349;-74
2024/02/25 10:06:35;;;;;;;14.50;13.00;;;;;;;23.20;39.89;99532.71;102913;1259;97860;-74
2024/02/25 10:09:03;;;;;;;14.50;13.00;;;;;;;23.10;39.89;99529.91;102882;1259;137986;-74
2024/02/25 10:11:30;;;;;;;15.20;12.40;;;;;;;22.97;39.54;99529.67;102893;1263;107636;-73
2024/02/25 10:13:58;;;;;;;15.70;13.10;;;;;;;22.91;40.42;99528.27;102882;1259;138121;-73
2024/02/25 10:16:26;;;;;;;14.60;12.50;;;;;;;23.04;40.98;99522.36;102949;1259;109150;-73
2024/02/25 10:18:54;;;;;;;15.00;12.70;;;;;;;23.37;41.13;99523.95;102910;1259;97802;-73
2024/02/25 10:21:22;;;;;;;14.30;12.80;;;;;;;23.74;40.75;99524.80;102769;1263;138712;-73
2024/02/25 10:23:55;;;;;;;14.60;12.80;;;;;;;23.93;40.54;99519.00;102780;1259;108244;-73
2024/02/25 10:26:24;;;;;;;15.20;12.40;;;;;;;23.99;39.68;99514.85;102806;1259;138218;-72
2024/02/25 10:29:04;;;;;;;13.50;12.00;;;;;;;23.83;38.95;99513.61;103010;1259;106823;-73
2024/02/25 10:31:32;;;;;;;14.30;12.40;;;;;;;23.50;38.48;99508.16;103029;1258;139420;-73
2024/02/25 10:34:00;;;;;;;14.00;12.50;;;;;;;23.13;38.91;99502.95;103057;1259;110604;-73
2024/02/25 10:36:29;;;;;;;15.60;13.00;;;;;;;22.82;38.59;99507.79;103017;1263;108720;-73
2024/02/25 10:38:58;;;;;;;15.20;12.60;;;;;;;22.43;39.22;99501.39;103392;1258;140081;-73
2024/02/25 10:41:27;;;;;;;16.60;13.10;;;;;;;22.27;39.69;99504.64;103048;1258;107630;-73
2024/02/25 10:44:02;;;;;;;15.70;13.40;;;;;;;22.15;39.85;99502.77;102940;1259;138640;-73
2024/02/25 10:46:38;;;;;;;15.30;13.30;;;;;;;21.93;39.94;99497.69;103203;1259;110572;-73
2024/02/25 10:49:07;;;;;;;13.90;12.50;;;;;;;21.74;39.92;99506.78;103410;1259;108219;-72
2024/02/25 10:51:36;;;;;;;14.60;12.70;;;;;;;21.57;39.92;99501.09;103221;1258;137786;-72
2024/02/25 10:54:05;;;;;;;15.20;13.30;;;;;;;21.23;39.82;99497.36;102951;1259;107328;-73
2024/02/25 10:56:34;;;;;;;14.10;12.60;;;;;;;20.93;40.59;99492.76;102886;1264;138816;-74
2024/02/25 10:59:03;;;;;;;16.10;13.80;;;;;;;20.66;40.49;99491.09;102994;1263;111827;-72
2024/02/25 11:01:32;;;;;;;17.70;13.50;;;;;;;20.33;41.36;99482.54;103655;1263;138426;-73
2024/02/25 11:04:00;;;;;;;13.50;11.30;;;;;;;20.19;41.66;99474.02;102936;1262;98520;-72
2024/02/25 11:06:36;;;;;;;15.00;12.60;;;;;;;20.22;42.30;99473.95;103582;1258;107314;-72
2024/02/25 11:09:10;;;;;;;16.30;12.10;;;;;;;20.10;41.63;99476.91;102829;1259;138785;-73
2024/02/25 11:11:37;;;;;;;16.40;12.50;;;;;;;19.78;41.55;99473.87;103591;1259;111152;-73